Latest Coastal Weather Observations for Gannett Cay

IDQ60701

Issued at 9:31 am EST Monday 27 February 2017 (issued every 10 minutes, with the page automatically refreshed every 10 minutes)

About coastal observations | Map of coastal stations | Coastal observations for QLD | Marine services | Other Formats
Station Details ID: 200831 Name: GANNET CAY Lat: -21.98 Lon: 152.47 Height: 2.3 m
Data from the previous 72 hours. | See also: Recent months for locations in Queensland
Date/Time
EST
Temp
°C
Wind Pressure Rain since
9am
mm
Weather Cloud Vis
km
Sea
Height
m
Swell
Dir  Spd
kts
Gust
kts
hPa Trend Height
m
Period
s
Dir
27/09:00am 27.7 E 16 18 1013.0 - - - - - - - - -
27/08:30am 27.6 E 14 16 1012.7 - - - - - - - - -
27/08:29am 27.7 E 14 - 1012.8 - - - - - - - - -
27/08:00am 27.7 E 14 16 1012.5 - - - - - - - - -
27/07:30am 27.5 E 15 18 1012.2 - - - - - - - - -
27/07:29am 27.6 E 15 - 1012.2 - - - - - - - - -
27/07:00am 27.4 E 14 17 1012.1 - - - - - - - - -
27/06:30am 27.1 ESE 14 16 1011.8 - - - - - - - - -
27/06:29am 26.9 E 14 - 1011.9 - - - - - - - - -
27/06:00am 26.6 E 15 19 1011.5 - - - - - - - - -
27/05:30am 26.2 E 13 17 1011.4 - - - - - - - - -
27/05:29am 26.2 E 14 - 1011.5 - - - - - - - - -
27/05:00am 25.3 E 18 23 1011.3 - - - - - - - - -
27/04:30am 26.4 E 16 19 1010.8 - - - - - - - - -
27/04:29am 26.3 E 16 - 1010.9 - - - - - - - - -
27/04:00am 26.7 ESE 18 21 1011.1 - - - - - - - - -
27/03:30am 26.2 ESE 18 21 1010.9 - - - - - - - - -
27/03:29am 26.4 ESE 18 - 1011.0 - - - - - - - - -
27/03:00am 25.7 ESE 22 29 1011.2 - - - - - - - - -
27/02:49am 25.8 ESE 27 30 1011.3 - - - - - - - - -
27/02:30am 27.1 E 17 19 1011.3 - - - - - - - - -
27/02:29am 27.0 E 17 - 1011.4 - - - - - - - - -
27/02:00am 27.0 E 19 22 1011.4 - - - - - - - - -
27/01:30am 26.9 ESE 18 22 1011.7 - - - - - - - - -
27/01:29am 27.0 ESE 19 - 1011.8 - - - - - - - - -
27/01:00am 26.8 ESE 19 23 1012.0 - - - - - - - - -
27/12:30am 27.0 ESE 19 22 1011.9 - - - - - - - - -
27/12:29am 27.0 ESE 18 - 1012.0 - - - - - - - - -
27/12:00am 27.1 E 21 23 1011.8 - - - - - - - - -
 
Date/Time
EST
Temp
°C
Wind Pressure Rain since
9am
mm
Weather Cloud Vis
km
Sea
Height
m
Swell
Dir  Spd
kts
Gust
kts
hPa Trend Height
m
Period
s
Dir
26/11:30pm 27.0 ESE 20 24 1011.8 - - - - - - - - -
26/11:29pm 27.2 ESE 20 - 1011.9 - - - - - - - - -
26/11:00pm 27.0 ESE 21 24 1011.8 - - - - - - - - -
26/10:30pm 26.8 ESE 20 23 1012.3 - - - - - - - - -
26/10:29pm 27.0 ESE 20 - 1012.4 - - - - - - - - -
26/10:00pm 27.1 ESE 20 23 1012.5 - - - - - - - - -
26/09:30pm 26.9 ESE 21 24 1012.5 - - - - - - - - -
26/09:29pm 26.7 ESE 21 - 1012.6 - - - - - - - - -
26/09:00pm 26.3 ESE 20 23 1012.5 - - - - - - - - -
26/08:30pm 23.7 SE 17 33 1012.7 - - - - - - - - -
26/08:29pm 23.7 SE 26 - 1012.8 - - - - - - - - -
26/08:24pm 24.6 SE 30 32 1012.4 - - - - - - - - -
26/08:22pm 27.3 ESE 17 27 1012.2 - - - - - - - - -
26/08:00pm 27.1 SE 18 21 1011.8 - - - - - - - - -
26/07:30pm 27.0 SE 17 20 1011.5 - - - - - - - - -
26/07:29pm 27.1 SE 17 - 1011.6 - - - - - - - - -
26/07:00pm 27.1 ESE 17 20 1011.1 - - - - - - - - -
26/06:30pm 26.2 SE 19 24 1011.0 - - - - - - - - -
26/06:29pm 26.5 SE 19 - 1011.0 - - - - - - - - -
26/06:00pm 27.1 SE 18 21 1010.7 - - - - - - - - -
26/05:30pm 26.7 ESE 16 18 1010.8 - - - - - - - - -
26/05:29pm 26.7 ESE 16 - 1010.9 - - - - - - - - -
26/05:00pm 25.5 ESE 23 25 1010.7 - - - - - - - - -
26/04:30pm 26.1 SE 22 26 1010.5 - - - - - - - - -
26/04:29pm 26.4 SE 22 - 1010.6 - - - - - - - - -
26/04:00pm 27.5 SSE 19 24 1010.2 - - - - - - - - -
26/03:30pm 27.8 SSE 18 20 1010.2 - - - - - - - - -
26/03:29pm 27.8 SSE 18 - 1010.3 - - - - - - - - -
26/03:00pm 28.4 SE 15 17 1010.0 - - - - - - - - -
26/02:30pm 28.3 SSE 14 17 1010.2 - - - - - - - - -
26/02:29pm 28.2 SSE 14 - 1010.3 - - - - - - - - -
26/02:00pm 28.2 SE 15 17 1010.4 - - - - - - - - -
26/01:30pm 28.1 ESE 14 17 1010.5 - - - - - - - - -
26/01:29pm 28.2 ESE 14 - 1010.7 - - - - - - - - -
26/01:00pm 28.0 SE 15 17 1010.7 - - - - - - - - -
26/12:30pm 27.5 SE 15 18 1011.0 - - - - - - - - -
26/12:29pm 27.5 SE 15 - 1011.1 - - - - - - - - -
26/12:00pm 27.9 ESE 14 17 1011.4 - - - - - - - - -
26/11:30am 27.6 SSE 15 17 1011.7 - - - - - - - - -
26/11:29am 27.6 SSE 14 - 1011.8 - - - - - - - - -
26/11:00am 27.6 ESE 13 15 1011.7 - - - - - - - - -
26/10:30am 27.5 ESE 13 16 1011.8 - - - - - - - - -
26/10:29am 27.4 SE 13 - 1011.9 - - - - - - - - -
26/10:00am 26.9 ESE 12 14 1012.1 - - - - - - - - -
26/09:30am 26.8 SSE 14 17 1012.1 - - - - - - - - -
26/09:29am 26.9 SSE 13 - 1012.3 - - - - - - - - -
26/09:00am 26.8 SE 14 16 1012.2 - - - - - - - - -
26/08:30am 26.4 SE 18 21 1012.0 - - - - - - - - -
26/08:29am 26.2 SE 18 - 1012.2 - - - - - - - - -
26/08:00am 26.4 SE 20 23 1011.8 - - - - - - - - -
26/07:30am 26.4 SSE 18 21 1011.7 - - - - - - - - -
26/07:29am 26.3 SSE 17 - 1011.7 - - - - - - - - -
26/07:00am 27.4 ESE 14 17 1011.3 - - - - - - - - -
26/06:30am 27.2 ESE 13 16 1010.9 - - - - - - - - -
26/06:29am 27.2 ESE 13 - 1011.0 - - - - - - - - -
26/06:00am 27.0 ESE 15 18 1010.7 - - - - - - - - -
26/05:30am 27.0 ESE 17 19 1010.3 - - - - - - - - -
26/05:29am 27.0 ESE 17 - 1010.4 - - - - - - - - -
26/05:00am 27.0 SE 17 19 1010.0 - - - - - - - - -
26/04:30am 27.0 ESE 18 21 1009.7 - - - - - - - - -
26/04:29am 27.0 ESE 18 - 1009.8 - - - - - - - - -
26/04:00am 27.0 ESE 20 23 1009.6 - - - - - - - - -
26/03:30am 27.2 ESE 20 24 1009.5 - - - - - - - - -
26/03:29am 26.9 ESE 20 - 1009.6 - - - - - - - - -
26/03:00am 27.0 SE 20 22 1009.6 - - - - - - - - -
26/02:30am 27.1 SE 21 23 1009.7 - - - - - - - - -
26/02:29am 27.0 SE 20 - 1009.8 - - - - - - - - -
26/02:00am 27.3 ESE 18 22 1009.9 - - - - - - - - -
26/01:30am 27.3 SE 18 21 1010.3 - - - - - - - - -
26/01:29am 27.4 SE 18 - 1010.4 - - - - - - - - -
26/01:00am 27.3 ESE 18 20 1010.7 - - - - - - - - -
26/12:30am 27.0 ESE 19 22 1011.1 - - - - - - - - -
26/12:29am 27.1 ESE 19 - 1011.2 - - - - - - - - -
26/12:00am 27.4 ESE 17 20 1011.3 - - - - - - - - -
 
Date/Time
EST
Temp
°C
Wind Pressure Rain since
9am
mm
Weather Cloud Vis
km
Sea
Height
m
Swell
Dir  Spd
kts
Gust
kts
hPa Trend Height
m
Period
s
Dir
25/11:30pm 27.2 ESE 16 19 1011.5 - - - - - - - - -
25/11:29pm 26.9 ESE 16 - 1011.7 - - - - - - - - -
25/11:00pm 27.1 ESE 21 24 1011.6 - - - - - - - - -
25/10:30pm 27.1 ESE 19 22 1011.6 - - - - - - - - -
25/10:29pm 26.9 ESE 19 - 1011.8 - - - - - - - - -
25/10:00pm 26.7 ESE 20 23 1011.7 - - - - - - - - -
25/09:30pm 26.9 SE 20 25 1011.8 - - - - - - - - -
25/09:29pm 27.2 ESE 19 - 1011.9 - - - - - - - - -
25/09:00pm 26.7 SE 20 23 1011.8 - - - - - - - - -
25/08:30pm 26.7 SE 19 21 1011.8 - - - - - - - - -
25/08:29pm 26.8 SE 19 - 1011.8 - - - - - - - - -
25/08:00pm 26.5 SE 21 23 1011.7 - - - - - - - - -
25/07:30pm 26.7 SE 19 22 1011.5 - - - - - - - - -
25/07:29pm 26.7 SE 19 - 1011.6 - - - - - - - - -
25/07:00pm 26.3 SSE 13 19 1011.4 - - - - - - - - -
25/06:30pm 24.9 SE 15 19 1011.2 - - - - - - - - -
25/06:29pm 25.0 SSE 16 - 1011.3 - - - - - - - - -
25/06:00pm 25.1 SSE 23 27 1010.9 - - - - - - - - -
25/05:30pm 26.8 SSE 18 20 1010.5 - - - - - - - - -
25/05:29pm 26.4 SSE 19 - 1010.6 - - - - - - - - -
25/05:00pm 23.5 SE 24 30 1010.5 - - - - - - - - -
25/04:53pm 25.9 SSE 19 29 1010.3 - - - - - - - - -
25/04:30pm 27.1 SE 15 18 1010.2 - - - - - - - - -
25/04:29pm 27.2 SE 16 - 1010.3 - - - - - - - - -
25/04:00pm 27.6 SE 19 23 1009.9 - - - - - - - - -
25/03:30pm 27.8 SSE 19 22 1009.9 - - - - - - - - -
25/03:29pm 27.7 SSE 19 - 1010.0 - - - - - - - - -
25/03:00pm 27.8 SSE 17 20 1009.9 - - - - - - - - -
25/02:30pm 28.0 SSE 17 20 1010.2 - - - - - - - - -
25/02:29pm 27.8 SSE 17 - 1010.3 - - - - - - - - -
25/02:00pm 27.6 SSE 16 19 1010.6 - - - - - - - - -
25/01:30pm 27.6 SSE 17 20 1010.9 - - - - - - - - -
25/01:29pm 27.7 SSE 18 - 1011.0 - - - - - - - - -
25/01:00pm 27.3 SSE 17 19 1011.1 - - - - - - - - -
25/12:30pm 27.2 SSE 18 20 1011.4 - - - - - - - - -
25/12:29pm 27.1 SSE 18 - 1011.5 - - - - - - - - -
25/12:00pm 27.8 SE 16 19 1011.8 - - - - - - - - -
25/11:30am 27.8 ESE 15 18 1012.1 - - - - - - - - -
25/11:29am 27.7 ESE 15 - 1012.2 - - - - - - - - -
25/11:00am 27.6 ESE 15 18 1012.4 - - - - - - - - -
25/10:30am 26.8 ESE 22 24 1012.6 - - - - - - - - -
25/10:29am 27.1 ESE 22 - 1012.7 - - - - - - - - -
25/10:26am 26.9 ESE 22 24 1012.6 - - - - - - - - -
25/10:00am 27.5 SSE 17 21 1012.7 - - - - - - - - -
25/09:30am 27.5 SSE 15 18 1012.6 - - - - - - - - -
25/09:29am 27.4 SSE 15 - 1012.7 - - - - - - - - -
25/09:00am 27.1 SE 16 19 1012.7 - - - - - - - - -
25/08:30am 26.8 SE 19 23 1012.5 - - - - - - - - -
25/08:29am 26.8 SE 19 - 1012.6 - - - - - - - - -
25/08:00am 27.0 SE 16 19 1012.4 - - - - - - - - -
25/07:30am 27.1 SE 16 19 1012.4 - - - - - - - - -
25/07:29am 27.0 SE 16 - 1012.5 - - - - - - - - -
25/07:00am 26.6 SE 17 20 1012.0 - - - - - - - - -
25/06:34am 25.4 SE 17 25 1011.9 - - - - - - - - -
25/06:30am 25.1 ESE 21 27 1011.9 - - - - - - - - -
25/06:29am 24.7 ESE 22 - 1012.0 - - - - - - - - -
25/06:24am 24.9 ESE 25 27 1011.8 - - - - - - - - -
25/06:21am 26.7 SE 15 27 1011.7 - - - - - - - - -
25/06:00am 26.9 SSE 14 16 1011.5 - - - - - - - - -
25/05:30am 27.2 SE 14 16 1011.5 - - - - - - - - -
25/05:29am 27.1 SE 14 - 1011.6 - - - - - - - - -
25/05:00am 26.8 SE 12 16 1011.3 - - - - - - - - -
25/04:30am 27.1 SE 13 15 1011.1 - - - - - - - - -
25/04:29am 27.0 SE 13 - 1011.3 - - - - - - - - -
25/04:00am 26.9 ESE 13 16 1011.1 - - - - - - - - -
25/03:30am 26.9 SE 15 18 1011.0 - - - - - - - - -
25/03:29am 26.7 SE 15 - 1011.1 - - - - - - - - -
25/03:00am 27.1 ESE 15 18 1011.1 - - - - - - - - -
25/02:30am 27.2 SE 15 19 1011.2 - - - - - - - - -
25/02:29am 27.3 SE 15 - 1011.3 - - - - - - - - -
25/02:00am 27.2 SE 16 19 1011.3 - - - - - - - - -
25/01:30am 27.3 SE 16 19 1011.6 - - - - - - - - -
25/01:29am 27.2 SE 16 - 1011.7 - - - - - - - - -
25/01:00am 27.3 SE 17 20 1011.8 - - - - - - - - -
25/12:30am 27.3 SE 18 20 1012.0 - - - - - - - - -
25/12:29am 27.3 SE 18 - 1012.2 - - - - - - - - -
25/12:00am 27.4 SE 18 22 1012.3 - - - - - - - - -
 
Date/Time
EST
Temp
°C
Wind Pressure Rain since
9am
mm
Weather Cloud Vis
km
Sea
Height
m
Swell
Dir  Spd
kts
Gust
kts
hPa Trend Height
m
Period
s
Dir
24/11:30pm 27.3 SE 19 22 1012.7 - - - - - - - - -
24/11:29pm 27.4 SE 19 - 1012.8 - - - - - - - - -
24/11:00pm 27.7 ESE 19 21 1013.1 - - - - - - - - -
24/10:30pm 27.6 ESE 18 21 1013.3 - - - - - - - - -
24/10:29pm 27.4 ESE 17 - 1013.4 - - - - - - - - -
24/10:00pm 27.5 ESE 18 21 1013.5 - - - - - - - - -
24/09:30pm 27.5 ESE 19 23 1013.5 - - - - - - - - -
24/09:29pm 27.5 ESE 19 - 1013.6 - - - - - - - - -
24/09:00pm 27.5 SE 19 22 1013.5 - - - - - - - - -
24/08:30pm 27.6 SE 20 24 1013.4 - - - - - - - - -
24/08:29pm 27.6 SE 20 - 1013.5 - - - - - - - - -
24/08:00pm 27.7 SE 19 22 1013.3 - - - - - - - - -
24/07:30pm 27.7 SE 19 23 1013.1 - - - - - - - - -
24/07:29pm 27.7 SE 19 - 1013.2 - - - - - - - - -
24/07:00pm 27.9 SE 18 21 1013.0 - - - - - - - - -
24/06:30pm 27.9 SE 18 21 1012.7 - - - - - - - - -
24/06:29pm 27.8 SE 18 - 1012.7 - - - - - - - - -
24/06:00pm 27.9 SE 17 19 1012.3 - - - - - - - - -
24/05:30pm 28.0 SE 17 19 1012.2 - - - - - - - - -
24/05:29pm 28.2 SE 17 - 1012.3 - - - - - - - - -
24/05:00pm 28.2 SE 15 17 1012.1 - - - - - - - - -
24/04:30pm 28.0 SE 17 19 1012.1 - - - - - - - - -
24/04:29pm 28.0 SE 17 - 1012.2 - - - - - - - - -
24/04:00pm 28.4 SE 15 17 1012.2 - - - - - - - - -
24/03:30pm 28.3 SE 16 19 1012.2 - - - - - - - - -
24/03:29pm 28.3 SE 16 - 1012.3 - - - - - - - - -
24/03:00pm 28.2 SE 14 16 1012.3 - - - - - - - - -
24/02:30pm 27.8 ESE 14 15 1012.3 - - - - - - - - -
24/02:29pm 28.0 ESE 14 - 1012.4 - - - - - - - - -
24/02:00pm 28.0 ESE 13 15 1012.4 - - - - - - - - -
24/01:30pm 28.0 E 11 13 1012.7 - - - - - - - - -
24/01:29pm 28.1 E 11 - 1012.8 - - - - - - - - -
24/01:00pm 28.2 ESE 9 11 1013.0 - - - - - - - - -
24/12:30pm 27.7 ESE 11 14 1013.3 - - - - - - - - -
24/12:29pm 27.9 ESE 12 - 1013.5 - - - - - - - - -
24/12:00pm 27.1 SE 18 21 1013.7 - - - - - - - - -
24/11:30am 27.3 SE 16 18 1013.9 - - - - - - - - -
24/11:29am 27.4 SE 16 - 1014.0 - - - - - - - - -
24/11:00am 26.9 SE 18 20 1013.9 - - - - - - - - -
24/10:30am 27.0 SSE 17 21 1014.1 - - - - - - - - -
24/10:29am 27.2 SSE 17 - 1014.2 - - - - - - - - -
24/10:00am 28.2 SE 12 16 1014.1 - - - - - - - - -

Other Formats:

Comma delimited format used in spreadsheet applications
http://www.bom.gov.au/fwo/IDQ60701/IDQ60701.94379.axf

JavaScript Object Notation format (JSON) in row-major order
http://www.bom.gov.au/fwo/IDQ60701/IDQ60701.94379.json